Goodwood, United Kingdom
Current Conditions -  °F | °C
As of 12:20 PM on Sunday 23 Nov 2014 (Local Time) from EGKA Reporting Station
Light Rain Light Rain  
Wind Chill: 43°   Ceiling: 3200
Heat Index: 48°   Visibility: 4mi
Dew Point: 46°   Wind: 14mph
Humidity: 93%   Direction: 350°N
Pressure: 29.97"   Gusts: 25mph
Location:  50.87°N, 0.73°W
Report Text: EGKA 231220Z 35012G22KT 6000 -RA FEW008 BKN032 09/08 Q1015
Loading
Personal Weather Stations






























Interactive Weather Map New forecast layout! Learn more

10-Day Weather Forecast

Advertisements
Track Severe Weather on mobile